sensor_id;sensor_type;location;lat;lon;timestamp;temperature;humidity
74617;DHT22;63123;50.906;4.198;2022-09-13T00:00:57;22.00;64.10
74617;DHT22;63123;50.906;4.198;2022-09-13T00:03:24;22.00;64.10
74617;DHT22;63123;50.906;4.198;2022-09-13T00:05:49;22.00;64.10
74617;DHT22;63123;50.906;4.198;2022-09-13T00:08:15;22.00;64.10
74617;DHT22;63123;50.906;4.198;2022-09-13T00:10:43;22.00;64.10
74617;DHT22;63123;50.906;4.198;2022-09-13T00:13:10;22.00;64.10
74617;DHT22;63123;50.906;4.198;2022-09-13T00:15:35;22.00;64.10
74617;DHT22;63123;50.906;4.198;2022-09-13T00:18:01;22.00;64.10
74617;DHT22;63123;50.906;4.198;2022-09-13T00:20:27;22.00;64.10
74617;DHT22;63123;50.906;4.198;2022-09-13T00:22:53;22.00;64.10
74617;DHT22;63123;50.906;4.198;2022-09-13T00:25:19;22.00;64.10
74617;DHT22;63123;50.906;4.198;2022-09-13T00:27:45;22.00;64.10
74617;DHT22;63123;50.906;4.198;2022-09-13T00:30:11;22.00;64.10
74617;DHT22;63123;50.906;4.198;2022-09-13T00:32:38;22.00;64.20
74617;DHT22;63123;50.906;4.198;2022-09-13T00:35:05;22.00;64.10
74617;DHT22;63123;50.906;4.198;2022-09-13T00:37:31;22.00;64.10
74617;DHT22;63123;50.906;4.198;2022-09-13T00:39:59;22.00;64.10
74617;DHT22;63123;50.906;4.198;2022-09-13T00:42:26;22.00;64.10
74617;DHT22;63123;50.906;4.198;2022-09-13T00:50:35;22.00;64.10
74617;DHT22;63123;50.906;4.198;2022-09-13T00:53:04;22.00;64.10
74617;DHT22;63123;50.906;4.198;2022-09-13T00:55:53;22.00;64.20
74617;DHT22;63123;50.906;4.198;2022-09-13T00:58:25;22.00;64.10
74617;DHT22;63123;50.906;4.198;2022-09-13T01:00:52;22.00;64.20
74617;DHT22;63123;50.906;4.198;2022-09-13T01:03:20;22.00;64.20
74617;DHT22;63123;50.906;4.198;2022-09-13T01:05:55;22.00;64.20
74617;DHT22;63123;50.906;4.198;2022-09-13T01:08:22;22.00;64.20
74617;DHT22;63123;50.906;4.198;2022-09-13T01:10:51;22.00;64.20
74617;DHT22;63123;50.906;4.198;2022-09-13T01:13:23;22.00;64.10
74617;DHT22;63123;50.906;4.198;2022-09-13T01:15:49;22.00;64.20
74617;DHT22;63123;50.906;4.198;2022-09-13T01:18:16;22.00;64.20
74617;DHT22;63123;50.906;4.198;2022-09-13T01:24:12;22.00;64.20
74617;DHT22;63123;50.906;4.198;2022-09-13T01:38:58;22.00;64.20
74617;DHT22;63123;50.906;4.198;2022-09-13T01:43:59;22.00;64.20
74617;DHT22;63123;50.906;4.198;2022-09-13T01:46:49;22.00;64.20
74617;DHT22;63123;50.906;4.198;2022-09-13T01:52:19;22.00;64.20
74617;DHT22;63123;50.906;4.198;2022-09-13T01:54:56;22.00;64.20
74617;DHT22;63123;50.906;4.198;2022-09-13T01:57:28;22.00;64.20
74617;DHT22;63123;50.906;4.198;2022-09-13T02:02:28;22.00;64.20
74617;DHT22;63123;50.906;4.198;2022-09-13T02:05:03;22.00;64.20
74617;DHT22;63123;50.906;4.198;2022-09-13T02:07:35;22.00;64.20
74617;DHT22;63123;50.906;4.198;2022-09-13T02:10:13;22.00;64.20
74617;DHT22;63123;50.906;4.198;2022-09-13T02:12:42;22.00;64.20
74617;DHT22;63123;50.906;4.198;2022-09-13T02:15:22;22.00;64.20
74617;DHT22;63123;50.906;4.198;2022-09-13T02:18:07;22.00;64.20
74617;DHT22;63123;50.906;4.198;2022-09-13T02:20:42;22.00;64.20
74617;DHT22;63123;50.906;4.198;2022-09-13T02:23:12;22.00;64.20
74617;DHT22;63123;50.906;4.198;2022-09-13T02:25:40;22.00;64.20
74617;DHT22;63123;50.906;4.198;2022-09-13T02:28:10;22.00;64.20
74617;DHT22;63123;50.906;4.198;2022-09-13T02:30:39;22.00;64.20
74617;DHT22;63123;50.906;4.198;2022-09-13T02:33:16;22.00;64.30
74617;DHT22;63123;50.906;4.198;2022-09-13T02:35:52;22.00;64.20
74617;DHT22;63123;50.906;4.198;2022-09-13T02:38:32;22.00;64.20
74617;DHT22;63123;50.906;4.198;2022-09-13T02:41:09;22.00;64.20
74617;DHT22;63123;50.906;4.198;2022-09-13T02:43:39;22.00;64.20
74617;DHT22;63123;50.906;4.198;2022-09-13T02:54:57;22.00;64.20
74617;DHT22;63123;50.906;4.198;2022-09-13T02:57:41;22.00;64.30
74617;DHT22;63123;50.906;4.198;2022-09-13T03:00:12;22.00;64.30
74617;DHT22;63123;50.906;4.198;2022-09-13T03:02:38;22.00;64.30
74617;DHT22;63123;50.906;4.198;2022-09-13T03:05:05;22.00;64.30
74617;DHT22;63123;50.906;4.198;2022-09-13T03:07:30;22.00;64.30
74617;DHT22;63123;50.906;4.198;2022-09-13T03:10:03;22.00;64.30
74617;DHT22;63123;50.906;4.198;2022-09-13T03:15:18;21.90;64.20
74617;DHT22;63123;50.906;4.198;2022-09-13T03:20:28;22.00;64.30
74617;DHT22;63123;50.906;4.198;2022-09-13T03:36:43;22.00;64.30
74617;DHT22;63123;50.906;4.198;2022-09-13T03:42:03;22.00;64.30
74617;DHT22;63123;50.906;4.198;2022-09-13T03:44:32;22.00;64.30
74617;DHT22;63123;50.906;4.198;2022-09-13T03:47:01;22.00;64.30
74617;DHT22;63123;50.906;4.198;2022-09-13T03:49:28;22.00;64.30
74617;DHT22;63123;50.906;4.198;2022-09-13T03:51:55;22.00;64.30
74617;DHT22;63123;50.906;4.198;2022-09-13T03:54:28;22.00;64.30
74617;DHT22;63123;50.906;4.198;2022-09-13T03:57:11;22.00;64.30
74617;DHT22;63123;50.906;4.198;2022-09-13T03:59:39;22.00;64.30
74617;DHT22;63123;50.906;4.198;2022-09-13T04:02:06;22.00;64.30
74617;DHT22;63123;50.906;4.198;2022-09-13T04:04:37;22.00;64.40
74617;DHT22;63123;50.906;4.198;2022-09-13T04:07:03;22.00;64.30
74617;DHT22;63123;50.906;4.198;2022-09-13T04:09:30;22.00;64.30
74617;DHT22;63123;50.906;4.198;2022-09-13T04:11:56;22.00;64.30
74617;DHT22;63123;50.906;4.198;2022-09-13T04:14:22;22.00;64.30
74617;DHT22;63123;50.906;4.198;2022-09-13T04:16:51;22.00;64.30
74617;DHT22;63123;50.906;4.198;2022-09-13T04:19:16;22.00;64.30
74617;DHT22;63123;50.906;4.198;2022-09-13T04:21:42;22.00;64.30
74617;DHT22;63123;50.906;4.198;2022-09-13T04:24:07;22.00;64.30
74617;DHT22;63123;50.906;4.198;2022-09-13T04:26:33;22.00;64.30
74617;DHT22;63123;50.906;4.198;2022-09-13T04:28:59;22.00;64.30
74617;DHT22;63123;50.906;4.198;2022-09-13T04:31:25;22.00;64.30
74617;DHT22;63123;50.906;4.198;2022-09-13T04:33:51;22.00;64.30
74617;DHT22;63123;50.906;4.198;2022-09-13T04:36:16;22.00;64.30
74617;DHT22;63123;50.906;4.198;2022-09-13T04:38:42;22.00;64.30
74617;DHT22;63123;50.906;4.198;2022-09-13T04:41:07;22.00;64.30
74617;DHT22;63123;50.906;4.198;2022-09-13T04:43:33;22.00;64.30
74617;DHT22;63123;50.906;4.198;2022-09-13T04:45:59;22.00;64.40
74617;DHT22;63123;50.906;4.198;2022-09-13T04:48:25;22.00;64.40
74617;DHT22;63123;50.906;4.198;2022-09-13T04:50:51;22.00;64.40
74617;DHT22;63123;50.906;4.198;2022-09-13T04:53:16;22.00;64.40
74617;DHT22;63123;50.906;4.198;2022-09-13T04:55:43;22.00;64.40
74617;DHT22;63123;50.906;4.198;2022-09-13T04:58:08;22.00;64.40
74617;DHT22;63123;50.906;4.198;2022-09-13T05:00:34;22.00;64.40
74617;DHT22;63123;50.906;4.198;2022-09-13T05:03:00;22.00;64.40
74617;DHT22;63123;50.906;4.198;2022-09-13T05:05:26;22.00;64.40
74617;DHT22;63123;50.906;4.198;2022-09-13T05:07:53;21.90;64.30
74617;DHT22;63123;50.906;4.198;2022-09-13T05:10:19;22.00;64.40
74617;DHT22;63123;50.906;4.198;2022-09-13T05:12:45;22.00;64.40
74617;DHT22;63123;50.906;4.198;2022-09-13T05:15:10;22.00;64.40
74617;DHT22;63123;50.906;4.198;2022-09-13T05:17:37;22.00;64.50
74617;DHT22;63123;50.906;4.198;2022-09-13T05:20:03;22.00;64.40
74617;DHT22;63123;50.906;4.198;2022-09-13T05:22:30;22.00;64.40
74617;DHT22;63123;50.906;4.198;2022-09-13T05:24:56;22.00;64.40
74617;DHT22;63123;50.906;4.198;2022-09-13T05:27:21;22.00;64.40
74617;DHT22;63123;50.906;4.198;2022-09-13T05:29:47;22.00;64.40
74617;DHT22;63123;50.906;4.198;2022-09-13T05:32:13;22.00;64.40
74617;DHT22;63123;50.906;4.198;2022-09-13T05:34:38;22.00;64.60
74617;DHT22;63123;50.906;4.198;2022-09-13T05:37:04;22.00;64.40
74617;DHT22;63123;50.906;4.198;2022-09-13T05:39:29;22.00;64.50
74617;DHT22;63123;50.906;4.198;2022-09-13T05:41:55;22.00;64.40
74617;DHT22;63123;50.906;4.198;2022-09-13T05:44:21;22.00;64.40
74617;DHT22;63123;50.906;4.198;2022-09-13T05:46:47;22.00;65.10
74617;DHT22;63123;50.906;4.198;2022-09-13T05:49:13;22.00;64.40
74617;DHT22;63123;50.906;4.198;2022-09-13T05:51:39;22.00;64.40
74617;DHT22;63123;50.906;4.198;2022-09-13T05:54:05;22.00;64.40
74617;DHT22;63123;50.906;4.198;2022-09-13T05:56:30;22.00;64.50
74617;DHT22;63123;50.906;4.198;2022-09-13T05:58:57;22.00;64.50
74617;DHT22;63123;50.906;4.198;2022-09-13T06:01:25;22.00;64.50
74617;DHT22;63123;50.906;4.198;2022-09-13T06:03:53;22.00;64.50
74617;DHT22;63123;50.906;4.198;2022-09-13T06:06:19;22.00;64.50
74617;DHT22;63123;50.906;4.198;2022-09-13T06:08:45;22.00;64.50
74617;DHT22;63123;50.906;4.198;2022-09-13T06:11:12;22.00;64.50
74617;DHT22;63123;50.906;4.198;2022-09-13T06:13:39;22.00;64.50
74617;DHT22;63123;50.906;4.198;2022-09-13T06:16:09;22.00;64.50
74617;DHT22;63123;50.906;4.198;2022-09-13T06:18:35;22.00;64.50
74617;DHT22;63123;50.906;4.198;2022-09-13T06:21:27;22.00;64.50
74617;DHT22;63123;50.906;4.198;2022-09-13T06:23:53;22.00;64.50
74617;DHT22;63123;50.906;4.198;2022-09-13T06:26:21;22.00;64.50
74617;DHT22;63123;50.906;4.198;2022-09-13T06:28:48;22.00;64.50
74617;DHT22;63123;50.906;4.198;2022-09-13T06:31:16;22.00;64.50
74617;DHT22;63123;50.906;4.198;2022-09-13T06:33:42;22.00;64.50
74617;DHT22;63123;50.906;4.198;2022-09-13T06:36:11;22.00;64.50
74617;DHT22;63123;50.906;4.198;2022-09-13T06:38:38;22.00;64.60
74617;DHT22;63123;50.906;4.198;2022-09-13T06:41:07;22.00;64.70
74617;DHT22;63123;50.906;4.198;2022-09-13T06:43:34;22.00;64.80
74617;DHT22;63123;50.906;4.198;2022-09-13T06:46:04;22.00;64.90
74617;DHT22;63123;50.906;4.198;2022-09-13T06:48:35;22.00;64.90
74617;DHT22;63123;50.906;4.198;2022-09-13T06:51:03;22.00;64.90
74617;DHT22;63123;50.906;4.198;2022-09-13T06:53:29;22.00;64.80
74617;DHT22;63123;50.906;4.198;2022-09-13T06:58:32;22.00;64.90
74617;DHT22;63123;50.906;4.198;2022-09-13T07:01:05;22.00;64.80
74617;DHT22;63123;50.906;4.198;2022-09-13T07:03:35;22.00;65.00
74617;DHT22;63123;50.906;4.198;2022-09-13T07:06:10;22.00;64.90
74617;DHT22;63123;50.906;4.198;2022-09-13T07:08:36;22.00;64.90
74617;DHT22;63123;50.906;4.198;2022-09-13T07:11:02;22.00;65.00
74617;DHT22;63123;50.906;4.198;2022-09-13T07:13:27;22.00;65.00
74617;DHT22;63123;50.906;4.198;2022-09-13T07:15:53;22.00;65.00
74617;DHT22;63123;50.906;4.198;2022-09-13T07:18:18;22.00;64.90
74617;DHT22;63123;50.906;4.198;2022-09-13T07:20:44;22.00;65.00
74617;DHT22;63123;50.906;4.198;2022-09-13T07:23:10;22.00;65.10
74617;DHT22;63123;50.906;4.198;2022-09-13T07:25:35;22.00;65.20
74617;DHT22;63123;50.906;4.198;2022-09-13T07:28:01;22.00;65.00
74617;DHT22;63123;50.906;4.198;2022-09-13T07:30:26;22.00;65.00
74617;DHT22;63123;50.906;4.198;2022-09-13T07:32:52;22.00;65.00
74617;DHT22;63123;50.906;4.198;2022-09-13T07:35:17;22.00;65.00
74617;DHT22;63123;50.906;4.198;2022-09-13T07:37:43;22.00;65.00
74617;DHT22;63123;50.906;4.198;2022-09-13T07:40:11;22.00;65.00
74617;DHT22;63123;50.906;4.198;2022-09-13T07:42:37;22.00;65.70
74617;DHT22;63123;50.906;4.198;2022-09-13T07:45:03;22.00;65.10
74617;DHT22;63123;50.906;4.198;2022-09-13T07:47:31;22.00;65.10
74617;DHT22;63123;50.906;4.198;2022-09-13T07:49:58;22.00;65.00
74617;DHT22;63123;50.906;4.198;2022-09-13T07:52:23;22.00;65.00
74617;DHT22;63123;50.906;4.198;2022-09-13T07:54:49;22.00;64.90
74617;DHT22;63123;50.906;4.198;2022-09-13T07:57:14;22.00;65.10
74617;DHT22;63123;50.906;4.198;2022-09-13T07:59:40;22.00;65.00
74617;DHT22;63123;50.906;4.198;2022-09-13T08:02:08;22.00;65.00
74617;DHT22;63123;50.906;4.198;2022-09-13T08:04:34;22.00;65.00
74617;DHT22;63123;50.906;4.198;2022-09-13T08:07:00;22.00;65.00
74617;DHT22;63123;50.906;4.198;2022-09-13T08:09:25;22.00;65.00
74617;DHT22;63123;50.906;4.198;2022-09-13T08:11:51;22.10;65.10
74617;DHT22;63123;50.906;4.198;2022-09-13T08:14:18;22.00;65.10
74617;DHT22;63123;50.906;4.198;2022-09-13T08:16:45;22.10;65.00
74617;DHT22;63123;50.906;4.198;2022-09-13T08:19:14;22.00;65.00
74617;DHT22;63123;50.906;4.198;2022-09-13T08:21:40;22.10;65.10
74617;DHT22;63123;50.906;4.198;2022-09-13T08:24:12;22.00;65.10
74617;DHT22;63123;50.906;4.198;2022-09-13T08:26:38;22.00;65.00
74617;DHT22;63123;50.906;4.198;2022-09-13T08:29:05;22.00;65.20
74617;DHT22;63123;50.906;4.198;2022-09-13T08:31:31;22.10;65.30
74617;DHT22;63123;50.906;4.198;2022-09-13T08:33:58;22.00;65.10
74617;DHT22;63123;50.906;4.198;2022-09-13T08:36:25;22.00;65.20
74617;DHT22;63123;50.906;4.198;2022-09-13T08:38:56;22.00;65.20
74617;DHT22;63123;50.906;4.198;2022-09-13T08:44:27;22.00;65.10
74617;DHT22;63123;50.906;4.198;2022-09-13T08:47:31;22.00;65.30
74617;DHT22;63123;50.906;4.198;2022-09-13T08:50:22;22.00;65.20
74617;DHT22;63123;50.906;4.198;2022-09-13T08:52:58;22.00;65.20
74617;DHT22;63123;50.906;4.198;2022-09-13T08:58:32;22.10;65.40
74617;DHT22;63123;50.906;4.198;2022-09-13T09:04:14;22.10;65.30
74617;DHT22;63123;50.906;4.198;2022-09-13T09:06:45;22.10;65.30
74617;DHT22;63123;50.906;4.198;2022-09-13T09:09:18;22.10;65.30
74617;DHT22;63123;50.906;4.198;2022-09-13T09:11:58;22.10;65.30
74617;DHT22;63123;50.906;4.198;2022-09-13T09:17:01;22.10;65.20
74617;DHT22;63123;50.906;4.198;2022-09-13T09:19:35;22.10;65.30
74617;DHT22;63123;50.906;4.198;2022-09-13T09:22:05;22.10;65.20
74617;DHT22;63123;50.906;4.198;2022-09-13T09:24:36;22.10;65.10
74617;DHT22;63123;50.906;4.198;2022-09-13T09:27:15;22.10;65.10
74617;DHT22;63123;50.906;4.198;2022-09-13T09:29:41;22.10;65.00
74617;DHT22;63123;50.906;4.198;2022-09-13T09:35:41;22.10;65.10
74617;DHT22;63123;50.906;4.198;2022-09-13T09:40:44;22.10;65.20
74617;DHT22;63123;50.906;4.198;2022-09-13T09:43:19;22.10;65.30
74617;DHT22;63123;50.906;4.198;2022-09-13T09:45:47;22.10;65.20
74617;DHT22;63123;50.906;4.198;2022-09-13T09:48:17;22.10;65.40
74617;DHT22;63123;50.906;4.198;2022-09-13T09:50:49;22.10;65.30
74617;DHT22;63123;50.906;4.198;2022-09-13T09:53:22;22.10;65.30
74617;DHT22;63123;50.906;4.198;2022-09-13T09:55:56;22.10;65.30
74617;DHT22;63123;50.906;4.198;2022-09-13T09:58:54;22.10;65.30
74617;DHT22;63123;50.906;4.198;2022-09-13T10:01:24;22.10;65.30
74617;DHT22;63123;50.906;4.198;2022-09-13T10:03:53;22.10;65.30
74617;DHT22;63123;50.906;4.198;2022-09-13T10:06:24;22.10;65.40
74617;DHT22;63123;50.906;4.198;2022-09-13T10:08:58;22.10;65.40
74617;DHT22;63123;50.906;4.198;2022-09-13T10:17:25;22.10;65.30
74617;DHT22;63123;50.906;4.198;2022-09-13T10:19:59;22.10;65.30
74617;DHT22;63123;50.906;4.198;2022-09-13T10:22:26;22.10;65.30
74617;DHT22;63123;50.906;4.198;2022-09-13T10:24:52;22.10;65.30
74617;DHT22;63123;50.906;4.198;2022-09-13T10:27:35;22.10;65.40
74617;DHT22;63123;50.906;4.198;2022-09-13T10:30:03;22.10;65.40
74617;DHT22;63123;50.906;4.198;2022-09-13T10:32:31;22.10;65.50
74617;DHT22;63123;50.906;4.198;2022-09-13T10:35:08;22.10;65.40
74617;DHT22;63123;50.906;4.198;2022-09-13T10:37:41;22.10;65.40
74617;DHT22;63123;50.906;4.198;2022-09-13T10:40:30;22.10;65.40
74617;DHT22;63123;50.906;4.198;2022-09-13T10:43:06;22.10;65.40
74617;DHT22;63123;50.906;4.198;2022-09-13T10:45:40;22.10;65.30
74617;DHT22;63123;50.906;4.198;2022-09-13T10:48:13;22.10;65.20
74617;DHT22;63123;50.906;4.198;2022-09-13T10:50:40;22.10;65.20
74617;DHT22;63123;50.906;4.198;2022-09-13T10:56:00;22.10;65.30
74617;DHT22;63123;50.906;4.198;2022-09-13T10:58:27;22.10;65.40
74617;DHT22;63123;50.906;4.198;2022-09-13T11:03:45;22.10;65.40
74617;DHT22;63123;50.906;4.198;2022-09-13T11:09:22;22.10;65.50
74617;DHT22;63123;50.906;4.198;2022-09-13T11:12:17;22.10;65.30
74617;DHT22;63123;50.906;4.198;2022-09-13T11:30:34;22.10;65.40
74617;DHT22;63123;50.906;4.198;2022-09-13T11:36:19;22.10;65.70
74617;DHT22;63123;50.906;4.198;2022-09-13T11:39:19;22.10;65.60
74617;DHT22;63123;50.906;4.198;2022-09-13T11:45:13;22.10;65.70
74617;DHT22;63123;50.906;4.198;2022-09-13T11:55:29;22.10;65.60
74617;DHT22;63123;50.906;4.198;2022-09-13T11:58:12;22.10;65.70
74617;DHT22;63123;50.906;4.198;2022-09-13T12:00:49;22.10;65.60
74617;DHT22;63123;50.906;4.198;2022-09-13T12:05:54;22.10;65.80
74617;DHT22;63123;50.906;4.198;2022-09-13T12:08:55;22.10;65.80
74617;DHT22;63123;50.906;4.198;2022-09-13T12:11:24;22.10;65.60
74617;DHT22;63123;50.906;4.198;2022-09-13T12:13:56;22.10;65.80
74617;DHT22;63123;50.906;4.198;2022-09-13T12:17:14;22.10;65.70
74617;DHT22;63123;50.906;4.198;2022-09-13T12:21:43;22.10;65.70
74617;DHT22;63123;50.906;4.198;2022-09-13T12:24:22;22.10;65.90
74617;DHT22;63123;50.906;4.198;2022-09-13T12:27:12;22.10;66.10
74617;DHT22;63123;50.906;4.198;2022-09-13T12:29:44;22.10;65.90
74617;DHT22;63123;50.906;4.198;2022-09-13T12:32:13;22.10;66.00
74617;DHT22;63123;50.906;4.198;2022-09-13T12:34:44;22.10;65.80
74617;DHT22;63123;50.906;4.198;2022-09-13T12:40:06;22.10;66.10
74617;DHT22;63123;50.906;4.198;2022-09-13T12:45:41;22.10;65.90
74617;DHT22;63123;50.906;4.198;2022-09-13T12:48:16;22.10;66.00
74617;DHT22;63123;50.906;4.198;2022-09-13T12:54:04;22.10;66.10
74617;DHT22;63123;50.906;4.198;2022-09-13T12:56:59;22.10;66.20
74617;DHT22;63123;50.906;4.198;2022-09-13T13:02:27;22.10;66.20
74617;DHT22;63123;50.906;4.198;2022-09-13T13:04:59;22.10;66.20
74617;DHT22;63123;50.906;4.198;2022-09-13T13:07:26;22.10;66.10
74617;DHT22;63123;50.906;4.198;2022-09-13T13:09:53;22.10;66.30
74617;DHT22;63123;50.906;4.198;2022-09-13T13:12:32;22.10;66.20
74617;DHT22;63123;50.906;4.198;2022-09-13T13:17:51;22.10;66.50
74617;DHT22;63123;50.906;4.198;2022-09-13T13:23:36;22.10;66.30
74617;DHT22;63123;50.906;4.198;2022-09-13T13:29:10;22.10;66.50
74617;DHT22;63123;50.906;4.198;2022-09-13T13:31:39;22.10;66.50
74617;DHT22;63123;50.906;4.198;2022-09-13T13:36:42;22.10;66.50
74617;DHT22;63123;50.906;4.198;2022-09-13T13:58:36;22.10;66.90
74617;DHT22;63123;50.906;4.198;2022-09-13T14:00:35;22.10;67.10
74617;DHT22;63123;50.906;4.198;2022-09-13T14:03:49;22.10;67.30
74617;DHT22;63123;50.906;4.198;2022-09-13T14:06:43;22.10;67.10
74617;DHT22;63123;50.906;4.198;2022-09-13T14:15:38;22.10;67.40
74617;DHT22;63123;50.906;4.198;2022-09-13T14:21:04;22.10;67.60
74617;DHT22;63123;50.906;4.198;2022-09-13T14:23:41;22.10;67.60
74617;DHT22;63123;50.906;4.198;2022-09-13T14:26:08;22.10;67.60
74617;DHT22;63123;50.906;4.198;2022-09-13T14:28:35;22.10;67.70
74617;DHT22;63123;50.906;4.198;2022-09-13T14:31:00;22.10;67.70
74617;DHT22;63123;50.906;4.198;2022-09-13T14:33:31;22.10;67.70
74617;DHT22;63123;50.906;4.198;2022-09-13T14:36:11;22.10;67.80
74617;DHT22;63123;50.906;4.198;2022-09-13T14:38:52;22.10;67.70
74617;DHT22;63123;50.906;4.198;2022-09-13T14:41:29;22.10;67.70
74617;DHT22;63123;50.906;4.198;2022-09-13T14:44:03;22.10;67.90
74617;DHT22;63123;50.906;4.198;2022-09-13T14:46:40;22.10;67.60
74617;DHT22;63123;50.906;4.198;2022-09-13T14:49:09;22.10;68.00
74617;DHT22;63123;50.906;4.198;2022-09-13T14:51:41;22.10;68.10
74617;DHT22;63123;50.906;4.198;2022-09-13T14:54:20;22.10;68.10
74617;DHT22;63123;50.906;4.198;2022-09-13T14:56:53;22.10;68.10
74617;DHT22;63123;50.906;4.198;2022-09-13T14:59:30;22.10;68.60
74617;DHT22;63123;50.906;4.198;2022-09-13T15:01:58;22.10;68.00
74617;DHT22;63123;50.906;4.198;2022-09-13T15:04:29;22.10;67.90
74617;DHT22;63123;50.906;4.198;2022-09-13T15:07:19;22.10;68.20
74617;DHT22;63123;50.906;4.198;2022-09-13T15:09:45;22.10;68.00
74617;DHT22;63123;50.906;4.198;2022-09-13T15:12:25;22.10;68.10
74617;DHT22;63123;50.906;4.198;2022-09-13T15:15:24;22.10;68.20
74617;DHT22;63123;50.906;4.198;2022-09-13T15:17:54;22.10;68.30
74617;DHT22;63123;50.906;4.198;2022-09-13T15:20:20;22.10;68.30
74617;DHT22;63123;50.906;4.198;2022-09-13T15:22:47;22.10;68.40
74617;DHT22;63123;50.906;4.198;2022-09-13T15:25:33;22.10;68.30
74617;DHT22;63123;50.906;4.198;2022-09-13T15:27:58;22.10;68.30
74617;DHT22;63123;50.906;4.198;2022-09-13T15:30:28;22.10;68.60
74617;DHT22;63123;50.906;4.198;2022-09-13T15:35:40;22.10;68.40
74617;DHT22;63123;50.906;4.198;2022-09-13T15:41:12;22.10;68.50
74617;DHT22;63123;50.906;4.198;2022-09-13T15:43:38;22.10;68.40
74617;DHT22;63123;50.906;4.198;2022-09-13T15:46:04;22.10;68.40
74617;DHT22;63123;50.906;4.198;2022-09-13T15:48:33;22.10;68.60
74617;DHT22;63123;50.906;4.198;2022-09-13T15:51:12;22.10;68.60
74617;DHT22;63123;50.906;4.198;2022-09-13T15:53:45;22.10;68.60
74617;DHT22;63123;50.906;4.198;2022-09-13T15:56:16;22.10;68.60
74617;DHT22;63123;50.906;4.198;2022-09-13T15:58:42;22.10;68.60
74617;DHT22;63123;50.906;4.198;2022-09-13T16:01:13;22.10;68.70
74617;DHT22;63123;50.906;4.198;2022-09-13T16:03:39;22.10;68.90
74617;DHT22;63123;50.906;4.198;2022-09-13T16:06:06;22.10;68.90
74617;DHT22;63123;50.906;4.198;2022-09-13T16:08:34;22.10;68.80
74617;DHT22;63123;50.906;4.198;2022-09-13T16:11:00;22.10;68.90
74617;DHT22;63123;50.906;4.198;2022-09-13T16:13:26;22.10;68.90
74617;DHT22;63123;50.906;4.198;2022-09-13T16:15:51;22.10;69.00
74617;DHT22;63123;50.906;4.198;2022-09-13T16:18:17;22.10;68.70
74617;DHT22;63123;50.906;4.198;2022-09-13T16:20:43;22.10;68.90
74617;DHT22;63123;50.906;4.198;2022-09-13T16:23:09;22.10;69.10
74617;DHT22;63123;50.906;4.198;2022-09-13T16:25:35;22.10;68.90
74617;DHT22;63123;50.906;4.198;2022-09-13T16:28:02;22.10;68.90
74617;DHT22;63123;50.906;4.198;2022-09-13T16:30:28;22.10;69.10
74617;DHT22;63123;50.906;4.198;2022-09-13T16:32:55;22.10;69.10
74617;DHT22;63123;50.906;4.198;2022-09-13T16:35:21;22.10;69.10
74617;DHT22;63123;50.906;4.198;2022-09-13T16:37:47;22.10;68.80
74617;DHT22;63123;50.906;4.198;2022-09-13T16:40:17;22.10;69.10
74617;DHT22;63123;50.906;4.198;2022-09-13T16:42:44;22.10;69.10
74617;DHT22;63123;50.906;4.198;2022-09-13T16:45:10;22.10;69.10
74617;DHT22;63123;50.906;4.198;2022-09-13T16:47:36;22.10;69.40
74617;DHT22;63123;50.906;4.198;2022-09-13T16:50:04;22.10;69.20
74617;DHT22;63123;50.906;4.198;2022-09-13T16:52:31;22.10;69.40
74617;DHT22;63123;50.906;4.198;2022-09-13T16:54:57;22.10;69.20
74617;DHT22;63123;50.906;4.198;2022-09-13T16:57:23;22.10;69.30
74617;DHT22;63123;50.906;4.198;2022-09-13T16:59:49;22.10;69.30
74617;DHT22;63123;50.906;4.198;2022-09-13T17:02:17;22.10;69.30
74617;DHT22;63123;50.906;4.198;2022-09-13T17:04:43;22.10;69.20
74617;DHT22;63123;50.906;4.198;2022-09-13T17:07:10;22.10;69.40
74617;DHT22;63123;50.906;4.198;2022-09-13T17:09:35;22.10;69.40
74617;DHT22;63123;50.906;4.198;2022-09-13T17:12:01;22.10;69.40
74617;DHT22;63123;50.906;4.198;2022-09-13T17:14:27;22.10;69.60
74617;DHT22;63123;50.906;4.198;2022-09-13T17:16:55;22.10;69.50
74617;DHT22;63123;50.906;4.198;2022-09-13T17:19:27;22.10;69.60
74617;DHT22;63123;50.906;4.198;2022-09-13T17:21:56;22.10;69.50
74617;DHT22;63123;50.906;4.198;2022-09-13T17:24:26;22.10;69.60
74617;DHT22;63123;50.906;4.198;2022-09-13T17:26:53;22.10;69.60
74617;DHT22;63123;50.906;4.198;2022-09-13T17:29:19;22.10;69.50
74617;DHT22;63123;50.906;4.198;2022-09-13T17:31:45;22.10;69.50
74617;DHT22;63123;50.906;4.198;2022-09-13T17:34:11;22.10;69.70
74617;DHT22;63123;50.906;4.198;2022-09-13T17:36:39;22.10;69.60
74617;DHT22;63123;50.906;4.198;2022-09-13T17:39:05;22.10;69.60
74617;DHT22;63123;50.906;4.198;2022-09-13T17:41:31;22.10;69.80
74617;DHT22;63123;50.906;4.198;2022-09-13T17:43:56;22.10;69.80
74617;DHT22;63123;50.906;4.198;2022-09-13T17:46:24;22.10;69.70
74617;DHT22;63123;50.906;4.198;2022-09-13T17:48:53;22.10;69.60
74617;DHT22;63123;50.906;4.198;2022-09-13T17:51:20;22.10;69.90
74617;DHT22;63123;50.906;4.198;2022-09-13T17:53:52;22.10;69.90
74617;DHT22;63123;50.906;4.198;2022-09-13T17:56:39;22.10;70.00
74617;DHT22;63123;50.906;4.198;2022-09-13T17:59:17;22.10;69.60
74617;DHT22;63123;50.906;4.198;2022-09-13T18:01:46;22.10;69.80
74617;DHT22;63123;50.906;4.198;2022-09-13T18:04:13;22.10;69.90
74617;DHT22;63123;50.906;4.198;2022-09-13T18:06:39;22.10;70.10
74617;DHT22;63123;50.906;4.198;2022-09-13T18:09:08;22.10;70.20
74617;DHT22;63123;50.906;4.198;2022-09-13T18:11:35;22.10;70.10
74617;DHT22;63123;50.906;4.198;2022-09-13T18:14:01;22.10;70.00
74617;DHT22;63123;50.906;4.198;2022-09-13T18:16:27;22.10;70.00
74617;DHT22;63123;50.906;4.198;2022-09-13T18:18:54;22.10;69.80
74617;DHT22;63123;50.906;4.198;2022-09-13T18:21:22;22.10;69.90
74617;DHT22;63123;50.906;4.198;2022-09-13T18:23:50;22.10;70.30
74617;DHT22;63123;50.906;4.198;2022-09-13T18:26:21;22.10;69.90
74617;DHT22;63123;50.906;4.198;2022-09-13T18:28:53;22.10;70.20
74617;DHT22;63123;50.906;4.198;2022-09-13T18:31:19;22.10;70.40
74617;DHT22;63123;50.906;4.198;2022-09-13T18:33:44;22.10;70.20
74617;DHT22;63123;50.906;4.198;2022-09-13T18:36:15;22.10;70.20
74617;DHT22;63123;50.906;4.198;2022-09-13T18:38:43;22.10;70.20
74617;DHT22;63123;50.906;4.198;2022-09-13T18:41:11;22.10;70.50
74617;DHT22;63123;50.906;4.198;2022-09-13T18:43:39;22.10;70.10
74617;DHT22;63123;50.906;4.198;2022-09-13T18:46:10;22.10;70.10
74617;DHT22;63123;50.906;4.198;2022-09-13T18:48:42;22.10;70.20
74617;DHT22;63123;50.906;4.198;2022-09-13T18:51:10;22.10;70.20
74617;DHT22;63123;50.906;4.198;2022-09-13T18:53:36;22.10;70.10
74617;DHT22;63123;50.906;4.198;2022-09-13T18:56:03;22.10;70.10